createdAt,value
2018-12-07T00:00:48.574Z,25.6
2018-12-07T00:01:39.246Z,25.7
2018-12-07T00:02:28.200Z,25.8
2018-12-07T00:03:18.232Z,25.9
2018-12-07T00:04:08.754Z,26
2018-12-07T00:04:58.917Z,26.1
2018-12-07T00:05:48.726Z,26.1
2018-12-07T00:06:38.863Z,26.2
2018-12-07T00:24:47.620Z,26.4
2018-12-07T00:25:36.736Z,26.3
2018-12-07T00:26:26.980Z,26.2
2018-12-07T00:27:17.510Z,26.1
2018-12-07T00:28:06.988Z,26
2018-12-07T00:28:57.025Z,25.8
2018-12-07T00:29:47.757Z,25.8
2018-12-07T00:30:37.455Z,25.6
2018-12-07T00:31:28.717Z,25.5
2018-12-07T00:32:17.645Z,25.4
2018-12-07T00:33:07.607Z,25.4
2018-12-07T00:33:56.329Z,25.4
2018-12-07T00:34:48.153Z,25.4
2018-12-07T00:35:37.794Z,25.4
2018-12-07T00:36:27.927Z,25.4
2018-12-07T00:37:18.177Z,25.4
2018-12-07T00:38:07.954Z,25.5
2018-12-07T00:38:58.349Z,25.5
2018-12-07T00:39:47.826Z,25.6
2018-12-07T00:40:37.937Z,25.6
2018-12-07T00:41:28.748Z,25.8
2018-12-07T00:42:17.686Z,25.9
2018-12-07T00:43:08.950Z,25.9
2018-12-07T00:43:58.941Z,26.1
2018-12-07T00:44:49.646Z,26.1
2018-12-07T00:45:38.446Z,26.2
2018-12-07T00:46:27.704Z,26.3
2018-12-07T00:47:18.301Z,26.3
2018-12-07T00:48:08.366Z,26.4
2018-12-07T00:48:59.481Z,26.4
2018-12-07T00:49:48.308Z,26.5
2018-12-07T00:50:38.864Z,26.6
2018-12-07T00:51:28.598Z,26.6
2018-12-07T00:52:18.091Z,26.7
2018-12-07T00:53:08.971Z,26.7
2018-12-07T00:53:59.339Z,26.8
2018-12-07T00:54:48.806Z,26.8
2018-12-07T00:55:39.690Z,26.9
2018-12-07T00:56:28.476Z,26.9
2018-12-07T00:57:18.426Z,26.9
2018-12-07T00:58:09.630Z,26.9
2018-12-07T00:58:59.345Z,26.9
2018-12-07T00:59:49.433Z,27
2018-12-07T01:00:39.278Z,27
2018-12-07T01:01:29.840Z,27
2018-12-07T01:02:18.845Z,27
2018-12-07T01:03:09.805Z,27
2018-12-07T01:04:00.581Z,26.9
2018-12-07T01:04:49.227Z,26.8
2018-12-07T01:05:40.340Z,26.7
2018-12-07T01:06:29.902Z,26.6
2018-12-07T01:07:19.403Z,26.4
2018-12-07T01:08:09.730Z,26.3
2018-12-07T01:08:59.792Z,26.3
2018-12-07T01:09:50.125Z,26.2
2018-12-07T01:10:40.528Z,26.1
2018-12-07T01:11:29.685Z,25.9
2018-12-07T01:12:19.815Z,25.8
2018-12-07T01:13:10.177Z,25.7
2018-12-07T01:14:01.352Z,25.6
2018-12-07T01:14:50.479Z,25.5
2018-12-07T01:15:40.902Z,25.4
2018-12-07T01:16:29.757Z,25.4
2018-12-07T01:17:20.877Z,25.4
2018-12-07T01:18:11.004Z,25.5
2018-12-07T01:19:00.272Z,25.5
2018-12-07T01:19:50.820Z,25.5
2018-12-07T01:20:40.676Z,25.6
2018-12-07T01:21:31.220Z,25.6
2018-12-07T01:22:21.281Z,25.6
2018-12-07T01:23:10.517Z,25.7
2018-12-07T01:24:00.887Z,25.8
2018-12-07T01:24:50.604Z,25.9
2018-12-07T01:25:42.059Z,26
2018-12-07T01:26:31.076Z,26.1
2018-12-07T01:27:20.731Z,26.2
2018-12-07T01:28:10.844Z,26.3
2018-12-07T01:29:00.876Z,26.3
2018-12-07T01:29:51.862Z,26.4
2018-12-07T01:30:41.561Z,26.4
2018-12-07T01:31:32.202Z,26.5
2018-12-07T01:32:22.235Z,26.5
2018-12-07T01:33:11.174Z,26.6
2018-12-07T01:34:01.526Z,26.6
2018-12-07T01:34:52.724Z,26.7
2018-12-07T01:35:42.288Z,26.7
2018-12-07T01:36:31.141Z,26.8
2018-12-07T01:37:22.900Z,26.8
2018-12-07T01:38:11.815Z,26.9
2018-12-07T01:39:02.402Z,26.9
2018-12-07T01:39:51.092Z,26.9
2018-12-07T01:40:42.062Z,26.9
2018-12-07T01:41:32.326Z,26.9
2018-12-07T01:42:22.628Z,27
2018-12-07T01:43:12.423Z,27.1
2018-12-07T01:44:02.491Z,27.1
2018-12-07T01:44:52.285Z,27.1
2018-12-07T01:45:42.585Z,27
2018-12-07T01:46:32.415Z,27
2018-12-07T01:47:22.975Z,26.9
2018-12-07T01:48:12.788Z,26.8
2018-12-07T01:49:01.532Z,26.8
2018-12-07T01:49:52.699Z,26.7
2018-12-07T01:50:42.507Z,26.6
2018-12-07T01:51:32.876Z,26.5
2018-12-07T01:52:22.915Z,26.4
2018-12-07T01:53:11.894Z,26.4
2018-12-07T01:54:02.711Z,26.3
2018-12-07T01:54:52.517Z,26.2
2018-12-07T01:55:43.349Z,26.1
2018-12-07T01:56:33.342Z,26
2018-12-07T01:57:23.951Z,26
2018-12-07T01:58:14.026Z,26
2018-12-07T01:59:02.959Z,26
2018-12-07T01:59:53.014Z,26.1
2018-12-07T02:00:43.956Z,26.2
2018-12-07T02:01:34.201Z,26.3
2018-12-07T02:02:23.291Z,26.4
2018-12-07T02:03:12.961Z,26.4
2018-12-07T02:04:04.431Z,26.4
2018-12-07T02:04:53.443Z,26.5
2018-12-07T02:05:43.970Z,26.6
2018-12-07T02:06:33.209Z,26.6
2018-12-07T02:07:24.623Z,26.6
2018-12-07T02:08:14.108Z,26.7
2018-12-07T02:09:03.746Z,26.8
2018-12-07T02:09:53.738Z,26.8
2018-12-07T02:10:44.893Z,26.9
2018-12-07T02:11:34.355Z,26.9
2018-12-07T02:12:24.109Z,26.9
2018-12-07T02:13:14.780Z,27
2018-12-07T02:14:04.840Z,27.1
2018-12-07T02:14:54.334Z,27.1
2018-12-07T02:15:44.393Z,27.1
2018-12-07T02:16:33.620Z,27.1
2018-12-07T02:17:24.600Z,27
2018-12-07T02:18:14.875Z,26.8
2018-12-07T02:19:04.615Z,26.7
2018-12-07T02:19:55.232Z,26.6
2018-12-07T02:20:45.293Z,26.5
2018-12-07T02:21:34.810Z,26.4
2018-12-07T02:22:24.643Z,26.3
2018-12-07T02:23:15.170Z,26.3
2018-12-07T02:24:05.522Z,26.2
2018-12-07T02:24:54.737Z,26.1
2018-12-07T02:25:45.897Z,25.9
2018-12-07T02:26:35.422Z,25.8
2018-12-07T02:27:25.168Z,25.7
2018-12-07T02:28:15.353Z,25.6
2018-12-07T02:29:05.649Z,25.6
2018-12-07T02:29:55.389Z,25.5
2018-12-07T02:30:45.212Z,25.6
2018-12-07T02:31:36.079Z,25.6
2018-12-07T02:32:25.869Z,25.6
2018-12-07T02:33:16.480Z,25.6
2018-12-07T02:34:05.978Z,25.6
2018-12-07T02:34:56.559Z,25.7
2018-12-07T02:35:45.489Z,25.8
2018-12-07T02:36:36.428Z,25.8
2018-12-07T02:37:26.441Z,25.9
2018-12-07T02:38:16.786Z,26
2018-12-07T02:39:06.533Z,26.1
2018-12-07T02:39:56.614Z,26.2
2018-12-07T02:40:47.136Z,26.3
2018-12-07T02:41:36.184Z,26.3
2018-12-07T02:42:26.526Z,26.4
2018-12-07T02:43:16.637Z,26.4
2018-12-07T02:44:06.466Z,26.5
2018-12-07T02:44:56.708Z,26.6
2018-12-07T02:45:46.466Z,26.6
2018-12-07T02:46:37.073Z,26.6
2018-12-07T02:47:26.713Z,26.7
2018-12-07T02:48:16.396Z,26.8
2018-12-07T02:49:07.366Z,26.8
2018-12-07T02:49:57.363Z,26.8
2018-12-07T02:50:47.075Z,26.8
2018-12-07T02:51:36.871Z,26.9
2018-12-07T02:52:27.355Z,26.9
2018-12-07T02:53:17.014Z,27
2018-12-07T02:54:07.445Z,27
2018-12-07T02:54:56.807Z,27.1
2018-12-07T02:55:47.467Z,27.1
2018-12-07T02:56:36.723Z,27.1
2018-12-07T02:57:27.013Z,27.1
2018-12-07T02:58:17.614Z,27.1
2018-12-07T02:59:07.099Z,26.9
2018-12-07T02:59:57.534Z,26.9
2018-12-07T03:00:48.117Z,26.8
2018-12-07T03:01:37.000Z,26.6
2018-12-07T03:02:27.627Z,26.5
2018-12-07T03:03:17.671Z,26.4
2018-12-07T03:04:08.594Z,26.3
2018-12-07T03:04:57.487Z,26.3
2018-12-07T03:05:48.120Z,26.2
2018-12-07T03:06:38.196Z,26
2018-12-07T03:07:27.688Z,25.9
2018-12-07T03:08:18.557Z,25.8
2018-12-07T03:09:08.570Z,25.7
2018-12-07T03:09:57.848Z,25.6
2018-12-07T03:10:48.203Z,25.6
2018-12-07T03:11:37.717Z,25.5
2018-12-07T03:12:28.666Z,25.6
2018-12-07T03:13:18.364Z,25.6
2018-12-07T03:14:08.631Z,25.6
2018-12-07T03:14:59.041Z,25.6
2018-12-07T03:15:48.537Z,25.6
2018-12-07T03:16:39.169Z,25.7
2018-12-07T03:17:28.648Z,25.7
2018-12-07T03:18:18.677Z,25.8
2018-12-07T03:19:08.691Z,25.8
2018-12-07T03:19:59.136Z,26
2018-12-07T03:20:48.919Z,26.1
2018-12-07T03:21:39.759Z,26.1
2018-12-07T03:22:28.422Z,26.3
2018-12-07T03:23:19.309Z,26.3
2018-12-07T03:24:09.467Z,26.3
2018-12-07T03:24:59.815Z,26.4
2018-12-07T03:25:49.839Z,26.4
2018-12-07T03:26:39.548Z,26.5
2018-12-07T03:27:29.963Z,26.6
2018-12-07T03:28:19.415Z,26.6
2018-12-07T03:29:09.449Z,26.7
2018-12-07T03:29:59.325Z,26.8
2018-12-07T03:30:50.574Z,26.8
2018-12-07T03:31:40.247Z,26.8
2018-12-07T03:32:29.996Z,26.8
2018-12-07T03:33:20.428Z,26.9
2018-12-07T03:34:10.623Z,26.9
2018-12-07T03:35:00.672Z,26.9
2018-12-07T03:35:50.727Z,27
2018-12-07T03:36:39.970Z,27
2018-12-07T03:37:30.850Z,27.1
2018-12-07T03:38:20.077Z,27.1
2018-12-07T03:39:10.997Z,27.1
2018-12-07T03:40:00.139Z,27.1
2018-12-07T03:40:49.685Z,27.1
2018-12-07T03:41:39.790Z,27.2
2018-12-07T03:42:30.907Z,27.1
2018-12-07T03:43:20.179Z,27
2018-12-07T03:44:10.774Z,26.9
2018-12-07T03:45:03.433Z,26.8
2018-12-07T03:45:50.584Z,26.6
2018-12-07T03:46:40.122Z,26.6
2018-12-07T03:47:30.425Z,26.4
2018-12-07T03:48:21.574Z,26.4
2018-12-07T03:49:11.674Z,26.3
2018-12-07T03:50:01.689Z,26.2
2018-12-07T03:50:51.009Z,26
2018-12-07T03:51:41.061Z,25.9
2018-12-07T03:52:31.584Z,25.8
2018-12-07T03:53:21.923Z,25.7
2018-12-07T03:54:13.049Z,25.6
2018-12-07T03:55:01.994Z,25.6
2018-12-07T03:55:51.861Z,25.6
2018-12-07T03:56:41.590Z,25.6
2018-12-07T03:57:31.966Z,25.6
2018-12-07T03:58:21.456Z,25.6
2018-12-07T03:59:10.976Z,25.6
2018-12-07T04:00:02.319Z,25.6
2018-12-07T04:00:51.959Z,25.7
2018-12-07T04:01:42.268Z,25.8
2018-12-07T04:02:31.499Z,25.8
2018-12-07T04:03:22.723Z,25.9
2018-12-07T04:04:12.170Z,25.9
2018-12-07T04:05:02.415Z,26.1
2018-12-07T04:05:52.853Z,26.1
2018-12-07T04:06:42.326Z,26.2
2018-12-07T04:07:32.306Z,26.3
2018-12-07T04:08:22.035Z,26.3
2018-12-07T04:09:12.013Z,26.4
2018-12-07T04:10:02.359Z,26.4
2018-12-07T04:10:51.846Z,26.5
2018-12-07T04:11:41.648Z,26.6
2018-12-07T04:12:32.206Z,26.6
2018-12-07T04:13:22.305Z,26.6
2018-12-07T04:14:11.591Z,26.7
2018-12-07T04:15:02.497Z,26.8
2018-12-07T04:15:52.990Z,26.8
2018-12-07T04:16:42.763Z,26.8
2018-12-07T04:17:32.767Z,26.8
2018-12-07T04:18:23.461Z,26.8
2018-12-07T04:19:12.376Z,26.8
2018-12-07T04:20:03.777Z,26.7
2018-12-07T04:20:54.113Z,26.6
2018-12-07T04:21:43.080Z,26.6
2018-12-07T04:22:32.827Z,26.5
2018-12-07T04:23:23.719Z,26.4
2018-12-07T04:24:13.185Z,26.4
2018-12-07T04:25:53.872Z,26.3
2018-12-07T04:26:43.985Z,26.2
2018-12-07T04:27:33.456Z,26.1
2018-12-07T04:28:23.545Z,26
2018-12-07T04:29:13.873Z,25.9
2018-12-07T04:30:03.359Z,25.9
2018-12-07T04:30:54.949Z,25.8
2018-12-07T04:31:43.614Z,25.8
2018-12-07T04:32:33.838Z,25.8
2018-12-07T04:33:24.474Z,25.8
2018-12-07T04:34:14.231Z,25.9
2018-12-07T04:35:04.295Z,25.9
2018-12-07T04:35:54.940Z,26
2018-12-07T04:36:44.189Z,26.1
2018-12-07T04:54:00.701Z,26.9
2018-12-07T04:54:50.434Z,26.9
2018-12-07T04:55:40.169Z,27
2018-12-07T04:56:30.517Z,27
2018-12-07T04:57:20.881Z,27
2018-12-07T04:58:10.939Z,26.9
2018-12-07T04:59:01.414Z,26.9
2018-12-07T04:59:51.356Z,26.8
2018-12-07T05:00:40.611Z,26.7
2018-12-07T05:01:31.198Z,26.6
2018-12-07T05:02:20.956Z,26.4
2018-12-07T05:03:11.041Z,26.3
2018-12-07T05:04:00.191Z,26.2
2018-12-07T05:04:51.413Z,26.1
2018-12-07T05:05:41.458Z,25.9
2018-12-07T05:06:30.796Z,25.9
2018-12-07T05:07:21.303Z,25.7
2018-12-07T05:08:11.930Z,25.6
2018-12-07T05:09:02.180Z,25.6
2018-12-07T05:09:53.057Z,25.6
2018-12-07T05:10:41.802Z,25.6
2018-12-07T05:11:31.656Z,25.6
2018-12-07T05:12:21.401Z,25.6
2018-12-07T05:13:11.403Z,25.6
2018-12-07T05:14:00.888Z,25.7
2018-12-07T05:14:52.368Z,25.8
2018-12-07T05:15:41.618Z,25.8
2018-12-07T05:16:31.692Z,25.8
2018-12-07T05:17:21.960Z,25.9
2018-12-07T05:18:11.752Z,25.9
2018-12-07T05:19:01.256Z,26
2018-12-07T05:19:52.163Z,26.1
2018-12-07T05:20:42.088Z,26.1
2018-12-07T05:21:32.253Z,26.2
2018-12-07T05:22:22.376Z,26.3
2018-12-07T05:23:11.580Z,26.3
2018-12-07T05:24:02.112Z,26.3
2018-12-07T05:24:53.253Z,26.4
2018-12-07T05:25:42.617Z,26.4
2018-12-07T05:26:32.940Z,26.4
2018-12-07T05:27:22.391Z,26.5
2018-12-07T05:28:12.947Z,26.6
2018-12-07T05:29:03.294Z,26.6
2018-12-07T05:29:52.852Z,26.6
2018-12-07T05:30:42.684Z,26.7
2018-12-07T05:31:33.477Z,26.7
2018-12-07T05:32:22.584Z,26.8
2018-12-07T05:33:13.014Z,26.8
2018-12-07T05:34:03.075Z,26.8
2018-12-07T05:34:53.014Z,26.9
2018-12-07T05:35:42.688Z,26.9
2018-12-07T05:36:33.351Z,26.9
2018-12-07T05:37:23.400Z,26.9
2018-12-07T05:38:12.327Z,27
2018-12-07T05:39:02.387Z,27
2018-12-07T05:39:53.309Z,27
2018-12-07T05:40:42.781Z,27.1
2018-12-07T05:41:33.481Z,27.1
2018-12-07T05:42:23.440Z,27.1
2018-12-07T05:43:13.596Z,27.1
2018-12-07T05:44:03.665Z,27
2018-12-07T05:44:53.914Z,26.9
2018-12-07T05:45:43.810Z,26.9
2018-12-07T05:46:34.192Z,26.8
2018-12-07T05:47:22.931Z,26.6
2018-12-07T05:48:13.551Z,26.5
2018-12-07T05:49:03.600Z,26.3
2018-12-07T05:49:53.651Z,26.3
2018-12-07T05:50:44.233Z,26.1
2018-12-07T05:51:34.939Z,26.1
2018-12-07T05:52:24.591Z,25.9
2018-12-07T05:53:14.418Z,25.8
2018-12-07T05:54:05.065Z,25.7
2018-12-07T05:54:54.535Z,25.6
2018-12-07T05:55:44.278Z,25.6
2018-12-07T05:56:34.390Z,25.6
2018-12-07T05:57:24.887Z,25.6
2018-12-07T05:58:14.513Z,25.6
2018-12-07T05:59:04.352Z,25.7
2018-12-07T05:59:54.343Z,25.8
2018-12-07T06:00:44.360Z,25.8
2018-12-07T06:01:34.722Z,25.8
2018-12-07T06:02:24.331Z,25.9
2018-12-07T06:03:14.312Z,25.9
2018-12-07T06:04:04.630Z,26
2018-12-07T06:04:54.633Z,26.1
2018-12-07T06:05:45.351Z,26.1
2018-12-07T06:06:34.507Z,26.2
2018-12-07T06:07:24.738Z,26.3
2018-12-07T06:08:15.107Z,26.3
2018-12-07T06:09:05.677Z,26.4
2018-12-07T06:09:54.686Z,26.4
2018-12-07T06:10:44.951Z,26.4
2018-12-07T06:11:35.624Z,26.5
2018-12-07T06:12:25.091Z,26.5
2018-12-07T06:13:16.289Z,26.6
2018-12-07T06:14:05.461Z,26.6
2018-12-07T06:14:55.277Z,26.6
2018-12-07T06:15:44.789Z,26.7
2018-12-07T06:16:36.034Z,26.7
2018-12-07T06:17:25.968Z,26.8
2018-12-07T06:18:16.123Z,26.8
2018-12-07T06:19:05.310Z,26.8
2018-12-07T06:19:55.098Z,26.8
2018-12-07T06:20:45.801Z,26.8
2018-12-07T06:21:36.106Z,26.9
2018-12-07T06:22:25.797Z,26.9
2018-12-07T06:23:16.408Z,26.9
2018-12-07T06:24:06.532Z,26.9
2018-12-07T06:24:56.635Z,27
2018-12-07T06:25:46.690Z,27
2018-12-07T06:26:36.211Z,27.1
2018-12-07T06:27:25.900Z,27.1
2018-12-07T06:28:16.530Z,27.1
2018-12-07T06:29:06.817Z,27.1
2018-12-07T06:29:56.715Z,27.1
2018-12-07T06:30:45.822Z,27.1
2018-12-07T06:31:36.163Z,27.2
2018-12-07T06:32:26.784Z,27.2
2018-12-07T06:33:17.347Z,27.2
2018-12-07T06:34:06.329Z,27.2
2018-12-07T06:34:56.995Z,27.2
2018-12-07T06:35:46.458Z,27.3
2018-12-07T06:36:36.297Z,27.2
2018-12-07T06:37:26.836Z,27.1
2018-12-07T06:38:17.134Z,27.1
2018-12-07T06:39:06.871Z,27.1
2018-12-07T06:39:58.868Z,26.9
2018-12-07T06:40:48.105Z,26.9
2018-12-07T06:41:37.108Z,26.8
2018-12-07T06:42:26.672Z,26.8
2018-12-07T06:43:17.313Z,26.6
2018-12-07T06:44:07.471Z,26.5
2018-12-07T06:44:58.773Z,26.5
2018-12-07T06:45:46.952Z,26.4
2018-12-07T06:46:37.181Z,26.3
2018-12-07T06:47:28.573Z,26.2
2018-12-07T06:48:17.618Z,26.2
2018-12-07T06:49:08.509Z,26.2
2018-12-07T06:49:58.188Z,26.2
2018-12-07T06:50:48.850Z,26.3
2018-12-07T06:51:38.460Z,26.3
2018-12-07T06:52:28.685Z,26.3
2018-12-07T06:53:18.390Z,26.4
2018-12-07T06:54:08.026Z,26.4
2018-12-07T06:54:57.940Z,26.5
2018-12-07T06:55:48.020Z,26.5
2018-12-07T06:56:38.690Z,26.6
2018-12-07T06:57:28.387Z,26.6
2018-12-07T06:58:18.515Z,26.6
2018-12-07T06:59:08.510Z,26.7
2018-12-07T06:59:58.352Z,26.7
2018-12-07T07:00:48.097Z,26.8
2018-12-07T07:01:39.237Z,26.8
2018-12-07T07:02:29.255Z,26.8
2018-12-07T07:03:18.884Z,26.9
2018-12-07T07:04:09.128Z,26.9
2018-12-07T07:04:59.145Z,26.9
2018-12-07T07:05:49.775Z,27
2018-12-07T07:06:39.325Z,26.9
2018-12-07T07:07:28.283Z,26.9
2018-12-07T07:08:19.949Z,26.9
2018-12-07T07:09:09.287Z,26.8
2018-12-07T07:10:00.106Z,26.7
2018-12-07T07:10:49.898Z,26.6
2018-12-07T07:11:39.639Z,26.4
2018-12-07T07:12:31.871Z,26.3
2018-12-07T07:13:20.031Z,26.2
2018-12-07T07:14:09.229Z,26.1
2018-12-07T07:15:00.121Z,25.9
2018-12-07T07:15:49.923Z,25.8
2018-12-07T07:16:39.977Z,25.7
2018-12-07T07:17:29.556Z,25.6
2018-12-07T07:18:21.901Z,25.6
2018-12-07T07:19:09.894Z,25.6
2018-12-07T07:20:00.227Z,25.6
2018-12-07T07:20:49.685Z,25.6
2018-12-07T07:21:40.608Z,25.7
2018-12-07T07:22:30.383Z,25.8
2018-12-07T07:23:19.903Z,25.8
2018-12-07T07:24:10.601Z,25.8
2018-12-07T07:25:01.095Z,25.9
2018-12-07T07:25:51.251Z,25.9
2018-12-07T07:26:40.653Z,26
2018-12-07T07:27:30.503Z,26.1
2018-12-07T07:28:20.225Z,26.1
2018-12-07T07:29:11.759Z,26.1
2018-12-07T07:30:01.588Z,26.2
2018-12-07T07:30:52.440Z,26.3
2018-12-07T07:31:48.920Z,26.4
2018-12-07T07:32:30.511Z,26.4
2018-12-07T07:33:20.840Z,26.5
2018-12-07T07:34:11.716Z,26.5
2018-12-07T07:35:00.966Z,26.6
2018-12-07T07:35:51.573Z,26.6
2018-12-07T07:36:41.452Z,26.6
2018-12-07T07:37:31.653Z,26.8
2018-12-07T07:38:20.347Z,26.8
2018-12-07T07:39:12.270Z,26.8
2018-12-07T07:40:00.792Z,26.9
2018-12-07T07:40:51.610Z,26.9
2018-12-07T07:41:41.161Z,26.9
2018-12-07T07:42:32.699Z,26.9
2018-12-07T07:43:21.252Z,26.9
2018-12-07T07:44:12.664Z,26.9
2018-12-07T07:45:01.950Z,26.8
2018-12-07T07:45:51.957Z,26.7
2018-12-07T07:46:41.839Z,26.6
2018-12-07T07:47:32.675Z,26.5
2018-12-07T07:48:22.146Z,26.4
2018-12-07T07:49:12.241Z,26.3
2018-12-07T07:50:02.551Z,26.1
2018-12-07T07:50:51.857Z,26
2018-12-07T07:51:43.211Z,25.9
2018-12-07T07:52:32.160Z,25.8
2018-12-07T07:53:22.049Z,25.7
2018-12-07T07:54:12.839Z,25.6
2018-12-07T07:55:02.909Z,25.5
2018-12-07T07:55:52.934Z,25.5
2018-12-07T07:56:42.716Z,25.6
2018-12-07T07:57:32.501Z,25.6
2018-12-07T07:58:23.154Z,25.7
2018-12-07T07:59:11.881Z,25.7
2018-12-07T08:00:02.973Z,25.8
2018-12-07T08:00:53.591Z,25.8
2018-12-07T08:01:43.061Z,25.9
2018-12-07T08:02:34.351Z,25.9
2018-12-07T08:03:22.916Z,26
2018-12-07T08:04:12.700Z,26.1
2018-12-07T08:05:03.553Z,26.1
2018-12-07T08:05:53.323Z,26.2
2018-12-07T08:06:42.862Z,26.3
2018-12-07T08:07:33.479Z,26.3
2018-12-07T08:08:24.060Z,26.4
2018-12-07T08:09:14.235Z,26.4
2018-12-07T08:10:03.343Z,26.4
2018-12-07T08:10:54.220Z,26.6
2018-12-07T08:11:43.547Z,26.6
2018-12-07T08:12:33.623Z,26.6
2018-12-07T08:13:23.850Z,26.7
2018-12-07T08:14:14.242Z,26.7
2018-12-07T08:15:04.082Z,26.8
2018-12-07T08:15:53.844Z,26.8
2018-12-07T08:16:43.677Z,26.8
2018-12-07T08:17:33.924Z,26.8
2018-12-07T08:18:24.568Z,26.8
2018-12-07T08:19:13.947Z,26.7
2018-12-07T08:20:04.706Z,26.6
2018-12-07T08:20:53.913Z,26.5
2018-12-07T08:21:43.668Z,26.4
2018-12-07T08:22:34.492Z,26.3
2018-12-07T08:23:23.651Z,26.1
2018-12-07T08:24:15.007Z,26
2018-12-07T08:25:03.414Z,25.9
2018-12-07T08:25:54.014Z,25.8
2018-12-07T08:26:44.629Z,25.6
2018-12-07T08:27:35.433Z,25.5
2018-12-07T08:28:26.612Z,25.5
2018-12-07T08:29:15.554Z,25.4
2018-12-07T08:30:05.351Z,25.5
2018-12-07T08:30:55.439Z,25.5
2018-12-07T08:31:45.247Z,25.6
2018-12-07T08:32:35.458Z,25.6
2018-12-07T08:33:25.887Z,25.6
2018-12-07T08:34:14.579Z,25.7
2018-12-07T08:35:05.047Z,25.8
2018-12-07T08:35:55.553Z,25.8
2018-12-07T08:36:44.737Z,25.9
2018-12-07T08:37:35.048Z,25.9
2018-12-07T08:38:24.910Z,26
2018-12-07T08:39:15.928Z,26.1
2018-12-07T08:40:05.750Z,26.1
2018-12-07T08:40:56.299Z,26.3
2018-12-07T08:41:45.893Z,26.3
2018-12-07T08:42:35.890Z,26.4
2018-12-07T08:43:26.567Z,26.4
2018-12-07T08:44:16.267Z,26.4
2018-12-07T08:45:06.150Z,26.5
2018-12-07T08:45:55.013Z,26.6
2018-12-07T08:46:45.706Z,26.6
2018-12-07T08:47:35.999Z,26.7
2018-12-07T08:48:26.294Z,26.7
2018-12-07T08:49:16.335Z,26.8
2018-12-07T08:50:06.283Z,26.8
2018-12-07T08:50:56.760Z,26.8
2018-12-07T08:51:47.067Z,26.8
2018-12-07T08:52:36.064Z,26.8
2018-12-07T09:08:22.143Z,25.7
2018-12-07T09:09:13.058Z,25.8
2018-12-07T09:10:03.123Z,25.8
2018-12-07T09:10:52.604Z,25.9
2018-12-07T09:11:43.469Z,25.9
2018-12-07T09:12:33.036Z,26.1
2018-12-07T09:13:22.768Z,26.1
2018-12-07T09:14:13.124Z,26.2
2018-12-07T09:15:03.348Z,26.3
2018-12-07T09:15:52.870Z,26.3
2018-12-07T09:16:44.438Z,26.4
2018-12-07T09:17:33.766Z,26.4
2018-12-07T09:18:23.333Z,26.4
2018-12-07T09:19:13.629Z,26.5
2018-12-07T09:20:03.500Z,26.6
2018-12-07T09:21:01.428Z,26.6
2018-12-07T09:21:44.288Z,26.5
2018-12-07T09:22:33.851Z,26.5
2018-12-07T09:23:24.125Z,26.5
2018-12-07T09:24:12.189Z,26.4
2018-12-07T09:25:03.762Z,26.4
2018-12-07T09:25:54.077Z,26.3
2018-12-07T09:26:44.460Z,26.1
2018-12-07T09:27:33.902Z,26
2018-12-07T09:28:24.107Z,25.9
2018-12-07T09:29:14.302Z,25.8
2018-12-07T09:30:03.804Z,25.7
2018-12-07T09:30:54.165Z,25.6
2018-12-07T09:31:43.990Z,25.6
2018-12-07T09:32:34.814Z,25.6
2018-12-07T09:33:25.422Z,25.6
2018-12-07T09:34:14.643Z,25.6
2018-12-07T09:35:04.275Z,25.6
2018-12-07T09:35:53.914Z,25.8
2018-12-07T09:36:45.332Z,25.8
2018-12-07T09:37:36.814Z,25.8
2018-12-07T09:38:24.654Z,25.9
2018-12-07T09:39:14.697Z,25.9
2018-12-07T09:40:04.599Z,26
2018-12-07T09:40:54.831Z,26
2018-12-07T09:41:45.481Z,26.1
2018-12-07T09:42:34.990Z,26.1
2018-12-07T09:43:25.249Z,26.2
2018-12-07T09:44:15.874Z,26.2
2018-12-07T09:45:04.961Z,26.1
2018-12-07T09:45:55.966Z,26.1
2018-12-07T09:46:45.787Z,26.1
2018-12-07T09:47:35.084Z,26
2018-12-07T09:48:24.918Z,25.9
2018-12-07T09:49:15.056Z,25.9
2018-12-07T09:50:05.094Z,25.8
2018-12-07T09:50:55.031Z,25.5
2018-12-07T09:51:45.903Z,25.4
2018-12-07T09:52:36.458Z,25.1
2018-12-07T09:53:26.051Z,25
2018-12-07T09:54:16.036Z,24.8
2018-12-07T09:55:06.375Z,24.6
2018-12-07T09:55:56.825Z,24.6
2018-12-07T09:56:45.953Z,24.6
2018-12-07T09:57:36.566Z,24.6
2018-12-07T09:58:26.418Z,24.7
2018-12-07T09:59:15.538Z,24.8
2018-12-07T10:00:06.200Z,24.9
2018-12-07T10:00:57.350Z,24.9
2018-12-07T10:01:46.523Z,25
2018-12-07T10:02:36.325Z,25.1
2018-12-07T10:03:26.928Z,25.1
2018-12-07T10:04:17.025Z,25.2
2018-12-07T10:05:07.086Z,25.3
2018-12-07T10:05:56.620Z,25.4
2018-12-07T10:06:46.884Z,25.4
2018-12-07T10:07:36.755Z,25.5
2018-12-07T10:08:27.590Z,25.6
2018-12-07T10:09:17.331Z,25.6
2018-12-07T10:10:07.295Z,25.7
2018-12-07T10:10:56.639Z,25.8
2018-12-07T10:11:46.482Z,25.8
2018-12-07T10:12:37.423Z,25.9
2018-12-07T10:13:26.365Z,25.9
2018-12-07T10:14:16.925Z,25.9
2018-12-07T10:15:07.208Z,26
2018-12-07T10:15:57.529Z,26
2018-12-07T10:16:47.650Z,25.9
2018-12-07T10:17:36.712Z,25.9
2018-12-07T10:18:27.369Z,25.9
2018-12-07T10:19:18.103Z,25.8
2018-12-07T10:20:08.479Z,25.7
2018-12-07T10:20:58.195Z,25.6
2018-12-07T10:21:47.347Z,25.5
2018-12-07T10:22:39.982Z,25.4
2018-12-07T10:23:28.125Z,25.3
2018-12-07T10:24:18.403Z,25.1
2018-12-07T10:25:08.927Z,24.9
2018-12-07T10:25:58.489Z,24.8
2018-12-07T10:26:48.845Z,24.8
2018-12-07T10:27:38.319Z,24.7
2018-12-07T10:28:28.122Z,24.8
2018-12-07T10:29:18.232Z,24.8
2018-12-07T10:30:09.614Z,24.8
2018-12-07T10:30:58.314Z,24.9
2018-12-07T10:31:49.190Z,24.9
2018-12-07T10:32:38.988Z,25
2018-12-07T10:33:28.534Z,25.1
2018-12-07T10:34:19.351Z,25.1
2018-12-07T10:35:08.919Z,25.3
2018-12-07T10:35:59.427Z,25.3
2018-12-07T10:36:48.996Z,25.4
2018-12-07T10:37:39.029Z,25.6
2018-12-07T10:38:29.356Z,25.6
2018-12-07T10:39:18.931Z,25.7
2018-12-07T10:40:09.321Z,25.8
2018-12-07T10:40:58.674Z,25.8
2018-12-07T10:41:49.353Z,25.9
2018-12-07T10:42:39.859Z,26
2018-12-07T10:43:29.193Z,26.1
2018-12-07T10:44:19.768Z,26.1
2018-12-07T10:45:09.298Z,26.1
2018-12-07T10:45:59.043Z,26.1
2018-12-07T10:46:49.948Z,26.1
2018-12-07T10:47:40.388Z,26
2018-12-07T10:48:28.678Z,25.9
2018-12-07T10:49:19.933Z,25.9
2018-12-07T10:50:09.937Z,25.8
2018-12-07T10:51:00.216Z,25.7
2018-12-07T10:51:50.590Z,25.6
2018-12-07T10:52:40.588Z,25.4
2018-12-07T10:53:30.222Z,25.3
2018-12-07T10:54:20.186Z,25.1
2018-12-07T10:55:12.492Z,25
2018-12-07T10:55:59.798Z,24.9
2018-12-07T10:56:50.430Z,24.9
2018-12-07T10:57:40.435Z,24.9
2018-12-07T10:58:30.787Z,24.9
2018-12-07T10:59:20.220Z,24.9
2018-12-07T11:00:10.858Z,25.1
2018-12-07T11:01:00.312Z,25.1
2018-12-07T11:01:50.906Z,25.1
2018-12-07T11:02:42.787Z,25.2
2018-12-07T11:03:30.345Z,25.3
2018-12-07T11:04:20.730Z,25.4
2018-12-07T11:05:11.525Z,25.5
2018-12-07T11:06:01.240Z,25.6
2018-12-07T11:06:51.103Z,25.6
2018-12-07T11:07:41.360Z,25.7
2018-12-07T11:08:31.180Z,25.8
2018-12-07T11:09:20.160Z,25.9
2018-12-07T11:10:10.613Z,26
2018-12-07T11:11:01.384Z,26.1
2018-12-07T11:11:51.437Z,26.1
2018-12-07T11:12:41.522Z,26.2
2018-12-07T11:13:31.498Z,26.2
2018-12-07T11:14:22.445Z,26.1
2018-12-07T11:15:11.454Z,26.1
2018-12-07T11:16:01.931Z,26.1
2018-12-07T11:16:52.005Z,26
2018-12-07T11:17:41.333Z,25.9
2018-12-07T11:18:32.677Z,25.8
2018-12-07T11:19:21.161Z,25.7
2018-12-07T11:20:11.771Z,25.6
2018-12-07T11:21:01.784Z,25.4
2018-12-07T11:21:52.153Z,25.3
2018-12-07T11:22:41.908Z,25.3
2018-12-07T11:23:31.449Z,25.1
2018-12-07T11:24:21.765Z,25.1
2018-12-07T11:25:11.844Z,25
2018-12-07T11:26:02.231Z,24.9
2018-12-07T11:26:51.906Z,24.8
2018-12-07T11:27:41.763Z,24.8
2018-12-07T11:28:31.828Z,24.8
2018-12-07T11:29:22.083Z,24.8
2018-12-07T11:30:12.566Z,24.8
2018-12-07T11:31:01.082Z,24.8
2018-12-07T11:31:53.103Z,24.8
2018-12-07T11:32:42.610Z,24.9
2018-12-07T11:33:32.639Z,25
2018-12-07T11:34:22.134Z,25.1
2018-12-07T11:35:12.623Z,25.1
2018-12-07T11:36:10.058Z,25.3
2018-12-07T11:36:52.315Z,25.3
2018-12-07T11:37:42.510Z,25.4
2018-12-07T11:38:32.883Z,25.6
2018-12-07T11:39:23.098Z,25.6
2018-12-07T11:40:13.468Z,25.7
2018-12-07T11:41:02.768Z,25.8
2018-12-07T11:41:53.033Z,25.9
2018-12-07T11:42:42.789Z,26
2018-12-07T11:43:33.350Z,26.1
2018-12-07T11:44:22.863Z,26.1
2018-12-07T11:45:13.185Z,26.2
2018-12-07T11:46:04.113Z,26.3
2018-12-07T11:46:53.540Z,26.1
2018-12-07T11:47:43.382Z,26.2
2018-12-07T11:48:33.715Z,26.1
2018-12-07T11:49:23.219Z,26.1
2018-12-07T11:50:13.757Z,26
2018-12-07T11:51:04.595Z,25.9
2018-12-07T11:51:54.223Z,25.8
2018-12-07T11:52:44.545Z,25.7
2018-12-07T11:53:34.629Z,25.6
2018-12-07T11:54:23.817Z,25.4
2018-12-07T11:55:14.189Z,25.3
2018-12-07T11:56:05.279Z,25.3
2018-12-07T11:56:54.237Z,25.2
2018-12-07T11:57:44.237Z,25.1
2018-12-07T11:58:33.810Z,25
2018-12-07T11:59:24.690Z,24.9